sensor_id;sensor_type;location;lat;lon;timestamp;temperature;humidity
72772;SHT30;60894;42.544;1.516;2022-11-02T00:02:18;8.51;80.66
72772;SHT30;60894;42.544;1.516;2022-11-02T00:04:45;8.50;80.81
72772;SHT30;60894;42.544;1.516;2022-11-02T00:07:12;8.47;80.98
72772;SHT30;60894;42.544;1.516;2022-11-02T00:09:39;8.44;80.68
72772;SHT30;60894;42.544;1.516;2022-11-02T00:12:06;8.43;80.66
72772;SHT30;60894;42.544;1.516;2022-11-02T00:14:33;8.34;80.52
72772;SHT30;60894;42.544;1.516;2022-11-02T00:17:01;8.39;80.53
72772;SHT30;60894;42.544;1.516;2022-11-02T00:19:29;8.29;81.54
72772;SHT30;60894;42.544;1.516;2022-11-02T00:21:56;8.25;81.31
72772;SHT30;60894;42.544;1.516;2022-11-02T00:24:24;8.20;81.14
72772;SHT30;60894;42.544;1.516;2022-11-02T00:26:51;8.14;81.43
72772;SHT30;60894;42.544;1.516;2022-11-02T00:29:19;8.22;81.48
72772;SHT30;60894;42.544;1.516;2022-11-02T00:31:47;8.16;81.51
72772;SHT30;60894;42.544;1.516;2022-11-02T00:34:16;8.25;81.35
72772;SHT30;60894;42.544;1.516;2022-11-02T00:36:43;8.22;81.03
72772;SHT30;60894;42.544;1.516;2022-11-02T00:39:10;8.13;80.99
72772;SHT30;60894;42.544;1.516;2022-11-02T00:41:37;8.12;80.66
72772;SHT30;60894;42.544;1.516;2022-11-02T00:44:03;8.09;81.01
72772;SHT30;60894;42.544;1.516;2022-11-02T00:46:30;7.98;81.23
72772;SHT30;60894;42.544;1.516;2022-11-02T00:48:57;8.06;81.17
72772;SHT30;60894;42.544;1.516;2022-11-02T00:51:26;7.98;80.96
72772;SHT30;60894;42.544;1.516;2022-11-02T00:53:53;8.02;81.02
72772;SHT30;60894;42.544;1.516;2022-11-02T00:56:20;7.98;81.20
72772;SHT30;60894;42.544;1.516;2022-11-02T00:58:47;8.06;80.90
72772;SHT30;60894;42.544;1.516;2022-11-02T01:01:13;8.13;81.26
72772;SHT30;60894;42.544;1.516;2022-11-02T01:03:40;8.06;81.28
72772;SHT30;60894;42.544;1.516;2022-11-02T01:06:09;8.05;80.81
72772;SHT30;60894;42.544;1.516;2022-11-02T01:08:37;8.00;80.75
72772;SHT30;60894;42.544;1.516;2022-11-02T01:11:09;7.89;80.80
72772;SHT30;60894;42.544;1.516;2022-11-02T01:13:36;7.86;81.24
72772;SHT30;60894;42.544;1.516;2022-11-02T01:16:04;7.83;81.61
72772;SHT30;60894;42.544;1.516;2022-11-02T01:18:31;7.85;81.25
72772;SHT30;60894;42.544;1.516;2022-11-02T01:20:58;7.78;81.41
72772;SHT30;60894;42.544;1.516;2022-11-02T01:23:25;7.71;81.53
72772;SHT30;60894;42.544;1.516;2022-11-02T01:25:54;7.89;80.94
72772;SHT30;60894;42.544;1.516;2022-11-02T01:28:21;7.89;80.66
72772;SHT30;60894;42.544;1.516;2022-11-02T01:30:47;7.82;80.86
72772;SHT30;60894;42.544;1.516;2022-11-02T01:33:14;7.72;80.80
72772;SHT30;60894;42.544;1.516;2022-11-02T01:35:41;7.65;81.01
72772;SHT30;60894;42.544;1.516;2022-11-02T01:38:08;7.67;81.52
72772;SHT30;60894;42.544;1.516;2022-11-02T01:40:35;7.67;82.10
72772;SHT30;60894;42.544;1.516;2022-11-02T01:45:59;7.64;81.86
72772;SHT30;60894;42.544;1.516;2022-11-02T01:48:30;7.71;80.93
72772;SHT30;60894;42.544;1.516;2022-11-02T01:51:00;7.51;81.08
72772;SHT30;60894;42.544;1.516;2022-11-02T01:53:28;7.51;81.14
72772;SHT30;60894;42.544;1.516;2022-11-02T01:55:55;7.52;81.58
72772;SHT30;60894;42.544;1.516;2022-11-02T01:58:23;7.48;81.70
72772;SHT30;60894;42.544;1.516;2022-11-02T02:00:52;7.50;81.74
72772;SHT30;60894;42.544;1.516;2022-11-02T02:03:21;7.44;81.54
72772;SHT30;60894;42.544;1.516;2022-11-02T02:05:52;7.48;81.71
72772;SHT30;60894;42.544;1.516;2022-11-02T02:08:22;7.60;81.44
72772;SHT30;60894;42.544;1.516;2022-11-02T02:10:50;7.52;81.42
72772;SHT30;60894;42.544;1.516;2022-11-02T02:13:17;7.40;81.69
72772;SHT30;60894;42.544;1.516;2022-11-02T02:15:49;7.41;81.60
72772;SHT30;60894;42.544;1.516;2022-11-02T02:18:29;7.40;81.65
72772;SHT30;60894;42.544;1.516;2022-11-02T02:21:08;7.34;81.75
72772;SHT30;60894;42.544;1.516;2022-11-02T02:26:59;7.35;81.27
72772;SHT30;60894;42.544;1.516;2022-11-02T02:29:33;7.34;81.34
72772;SHT30;60894;42.544;1.516;2022-11-02T02:32:04;7.20;81.44
72772;SHT30;60894;42.544;1.516;2022-11-02T02:34:37;7.27;81.45
72772;SHT30;60894;42.544;1.516;2022-11-02T02:37:13;7.14;81.88
72772;SHT30;60894;42.544;1.516;2022-11-02T02:39:46;7.14;82.10
72772;SHT30;60894;42.544;1.516;2022-11-02T02:42:18;7.14;81.89
72772;SHT30;60894;42.544;1.516;2022-11-02T02:44:52;7.14;81.95
72772;SHT30;60894;42.544;1.516;2022-11-02T02:47:24;7.32;81.53
72772;SHT30;60894;42.544;1.516;2022-11-02T02:49:57;7.06;81.71
72772;SHT30;60894;42.544;1.516;2022-11-02T02:52:27;7.04;81.94
72772;SHT30;60894;42.544;1.516;2022-11-02T02:54:57;7.00;81.61
72772;SHT30;60894;42.544;1.516;2022-11-02T02:57:27;7.06;81.99
72772;SHT30;60894;42.544;1.516;2022-11-02T02:59:57;7.03;81.78
72772;SHT30;60894;42.544;1.516;2022-11-02T03:02:27;7.06;81.64
72772;SHT30;60894;42.544;1.516;2022-11-02T03:04:54;7.00;81.89
72772;SHT30;60894;42.544;1.516;2022-11-02T03:07:23;6.96;81.89
72772;SHT30;60894;42.544;1.516;2022-11-02T03:09:57;7.04;81.51
72772;SHT30;60894;42.544;1.516;2022-11-02T03:12:32;7.19;81.46
72772;SHT30;60894;42.544;1.516;2022-11-02T03:15:10;7.14;81.43
72772;SHT30;60894;42.544;1.516;2022-11-02T03:17:45;7.07;81.48
72772;SHT30;60894;42.544;1.516;2022-11-02T03:20:21;6.97;81.91
72772;SHT30;60894;42.544;1.516;2022-11-02T03:22:57;6.76;82.26
72772;SHT30;60894;42.544;1.516;2022-11-02T03:25:29;6.88;82.26
72772;SHT30;60894;42.544;1.516;2022-11-02T03:28:08;6.79;81.69
72772;SHT30;60894;42.544;1.516;2022-11-02T03:30:41;6.88;82.14
72772;SHT30;60894;42.544;1.516;2022-11-02T03:33:17;6.89;82.14
72772;SHT30;60894;42.544;1.516;2022-11-02T03:35:50;6.96;81.87
72772;SHT30;60894;42.544;1.516;2022-11-02T03:38:20;6.79;82.08
72772;SHT30;60894;42.544;1.516;2022-11-02T03:40:50;6.76;82.12
72772;SHT30;60894;42.544;1.516;2022-11-02T03:43:18;6.79;82.00
72772;SHT30;60894;42.544;1.516;2022-11-02T03:45:50;6.76;81.91
72772;SHT30;60894;42.544;1.516;2022-11-02T03:48:20;6.72;81.94
72772;SHT30;60894;42.544;1.516;2022-11-02T03:50:49;6.85;81.82
72772;SHT30;60894;42.544;1.516;2022-11-02T03:53:20;6.78;81.95
72772;SHT30;60894;42.544;1.516;2022-11-02T03:55:51;6.65;81.80
72772;SHT30;60894;42.544;1.516;2022-11-02T03:58:18;6.65;82.15
72772;SHT30;60894;42.544;1.516;2022-11-02T04:00:50;6.62;81.80
72772;SHT30;60894;42.544;1.516;2022-11-02T04:03:19;6.56;81.80
72772;SHT30;60894;42.544;1.516;2022-11-02T04:05:48;6.56;82.02
72772;SHT30;60894;42.544;1.516;2022-11-02T04:08:20;6.55;82.09
72772;SHT30;60894;42.544;1.516;2022-11-02T04:10:49;6.49;81.70
72772;SHT30;60894;42.544;1.516;2022-11-02T04:13:34;6.46;81.81
72772;SHT30;60894;42.544;1.516;2022-11-02T04:16:20;6.39;82.30
72772;SHT30;60894;42.544;1.516;2022-11-02T04:18:47;6.39;82.47
72772;SHT30;60894;42.544;1.516;2022-11-02T04:21:32;6.41;82.49
72772;SHT30;60894;42.544;1.516;2022-11-02T04:23:59;6.41;82.25
72772;SHT30;60894;42.544;1.516;2022-11-02T04:26:43;6.29;81.92
72772;SHT30;60894;42.544;1.516;2022-11-02T04:29:10;6.29;82.34
72772;SHT30;60894;42.544;1.516;2022-11-02T04:31:38;6.32;82.17
72772;SHT30;60894;42.544;1.516;2022-11-02T04:34:05;6.32;81.98
72772;SHT30;60894;42.544;1.516;2022-11-02T04:36:31;6.32;82.53
72772;SHT30;60894;42.544;1.516;2022-11-02T04:38:58;6.38;81.74
72772;SHT30;60894;42.544;1.516;2022-11-02T04:41:25;6.35;82.20
72772;SHT30;60894;42.544;1.516;2022-11-02T04:44:07;6.31;82.20
72772;SHT30;60894;42.544;1.516;2022-11-02T04:46:36;6.31;82.23
72772;SHT30;60894;42.544;1.516;2022-11-02T04:49:05;6.16;82.15
72772;SHT30;60894;42.544;1.516;2022-11-02T04:51:32;6.22;81.94
72772;SHT30;60894;42.544;1.516;2022-11-02T04:53:59;6.20;82.01
72772;SHT30;60894;42.544;1.516;2022-11-02T04:56:27;6.13;81.81
72772;SHT30;60894;42.544;1.516;2022-11-02T04:58:56;6.25;82.04
72772;SHT30;60894;42.544;1.516;2022-11-02T05:01:24;6.27;82.32
72772;SHT30;60894;42.544;1.516;2022-11-02T05:03:52;6.21;82.47
72772;SHT30;60894;42.544;1.516;2022-11-02T05:06:21;6.17;81.80
72772;SHT30;60894;42.544;1.516;2022-11-02T05:08:48;6.27;81.61
72772;SHT30;60894;42.544;1.516;2022-11-02T05:11:15;6.18;82.03
72772;SHT30;60894;42.544;1.516;2022-11-02T05:13:42;6.24;82.60
72772;SHT30;60894;42.544;1.516;2022-11-02T05:16:12;6.14;82.34
72772;SHT30;60894;42.544;1.516;2022-11-02T05:18:39;6.22;82.47
72772;SHT30;60894;42.544;1.516;2022-11-02T05:21:07;6.25;81.79
72772;SHT30;60894;42.544;1.516;2022-11-02T05:23:36;6.41;82.18
72772;SHT30;60894;42.544;1.516;2022-11-02T05:26:05;6.32;81.99
72772;SHT30;60894;42.544;1.516;2022-11-02T05:28:32;6.21;82.40
72772;SHT30;60894;42.544;1.516;2022-11-02T05:31:00;6.21;82.31
72772;SHT30;60894;42.544;1.516;2022-11-02T05:33:28;6.14;82.21
72772;SHT30;60894;42.544;1.516;2022-11-02T05:35:55;6.10;82.31
72772;SHT30;60894;42.544;1.516;2022-11-02T05:38:22;6.13;82.22
72772;SHT30;60894;42.544;1.516;2022-11-02T05:40:54;6.18;82.18
72772;SHT30;60894;42.544;1.516;2022-11-02T05:43:21;6.20;82.02
72772;SHT30;60894;42.544;1.516;2022-11-02T05:45:53;6.22;82.17
72772;SHT30;60894;42.544;1.516;2022-11-02T05:48:20;6.28;81.69
72772;SHT30;60894;42.544;1.516;2022-11-02T05:50:47;6.24;81.50
72772;SHT30;60894;42.544;1.516;2022-11-02T05:53:15;6.29;81.57
72772;SHT30;60894;42.544;1.516;2022-11-02T05:55:41;6.29;82.08
72772;SHT30;60894;42.544;1.516;2022-11-02T05:58:10;6.28;82.08
72772;SHT30;60894;42.544;1.516;2022-11-02T06:00:37;6.24;82.23
72772;SHT30;60894;42.544;1.516;2022-11-02T06:03:05;6.34;82.19
72772;SHT30;60894;42.544;1.516;2022-11-02T06:05:32;6.27;82.99
72772;SHT30;60894;42.544;1.516;2022-11-02T06:07:59;6.31;82.70
72772;SHT30;60894;42.544;1.516;2022-11-02T06:10:27;6.27;82.77
72772;SHT30;60894;42.544;1.516;2022-11-02T06:12:55;6.28;82.59
72772;SHT30;60894;42.544;1.516;2022-11-02T06:15:24;6.22;82.90
72772;SHT30;60894;42.544;1.516;2022-11-02T06:17:50;6.25;83.02
72772;SHT30;60894;42.544;1.516;2022-11-02T06:20:18;6.28;83.27
72772;SHT30;60894;42.544;1.516;2022-11-02T06:22:45;6.28;82.91
72772;SHT30;60894;42.544;1.516;2022-11-02T06:25:12;6.31;82.75
72772;SHT30;60894;42.544;1.516;2022-11-02T06:27:40;6.39;82.82
72772;SHT30;60894;42.544;1.516;2022-11-02T06:30:08;6.44;82.64
72772;SHT30;60894;42.544;1.516;2022-11-02T06:32:37;6.45;83.03
72772;SHT30;60894;42.544;1.516;2022-11-02T06:35:04;6.59;82.47
72772;SHT30;60894;42.544;1.516;2022-11-02T06:37:34;6.69;82.32
72772;SHT30;60894;42.544;1.516;2022-11-02T06:40:01;6.62;82.69
72772;SHT30;60894;42.544;1.516;2022-11-02T06:42:28;6.65;82.89
72772;SHT30;60894;42.544;1.516;2022-11-02T06:44:55;6.68;82.63
72772;SHT30;60894;42.544;1.516;2022-11-02T06:47:29;6.61;82.83
72772;SHT30;60894;42.544;1.516;2022-11-02T06:49:58;6.68;82.98
72772;SHT30;60894;42.544;1.516;2022-11-02T06:52:25;6.71;82.48
72772;SHT30;60894;42.544;1.516;2022-11-02T06:54:52;6.72;82.82
72772;SHT30;60894;42.544;1.516;2022-11-02T06:57:20;6.79;82.79
72772;SHT30;60894;42.544;1.516;2022-11-02T06:59:46;6.79;82.82
72772;SHT30;60894;42.544;1.516;2022-11-02T07:02:13;6.92;82.72
72772;SHT30;60894;42.544;1.516;2022-11-02T07:04:40;6.95;82.52
72772;SHT30;60894;42.544;1.516;2022-11-02T07:07:09;6.95;82.58
72772;SHT30;60894;42.544;1.516;2022-11-02T07:09:35;7.03;82.12
72772;SHT30;60894;42.544;1.516;2022-11-02T07:12:04;7.10;81.89
72772;SHT30;60894;42.544;1.516;2022-11-02T07:14:31;7.27;81.59
72772;SHT30;60894;42.544;1.516;2022-11-02T07:16:58;7.14;82.04
72772;SHT30;60894;42.544;1.516;2022-11-02T07:19:25;7.21;82.36
72772;SHT30;60894;42.544;1.516;2022-11-02T07:21:51;7.26;81.74
72772;SHT30;60894;42.544;1.516;2022-11-02T07:24:20;7.26;81.71
72772;SHT30;60894;42.544;1.516;2022-11-02T07:26:47;7.23;82.06
72772;SHT30;60894;42.544;1.516;2022-11-02T07:29:16;7.31;83.00
72772;SHT30;60894;42.544;1.516;2022-11-02T07:31:43;7.31;82.47
72772;SHT30;60894;42.544;1.516;2022-11-02T07:34:10;7.40;82.89
72772;SHT30;60894;42.544;1.516;2022-11-02T07:36:38;7.43;82.74
72772;SHT30;60894;42.544;1.516;2022-11-02T07:39:05;7.47;82.15
72772;SHT30;60894;42.544;1.516;2022-11-02T07:41:34;7.47;81.89
72772;SHT30;60894;42.544;1.516;2022-11-02T07:44:01;7.55;81.62
72772;SHT30;60894;42.544;1.516;2022-11-02T07:46:28;7.62;82.17
72772;SHT30;60894;42.544;1.516;2022-11-02T07:48:54;7.74;82.48
72772;SHT30;60894;42.544;1.516;2022-11-02T07:51:21;7.79;82.48
72772;SHT30;60894;42.544;1.516;2022-11-02T07:53:48;7.88;82.47
72772;SHT30;60894;42.544;1.516;2022-11-02T07:56:15;7.92;81.82
72772;SHT30;60894;42.544;1.516;2022-11-02T07:58:44;7.99;81.98
72772;SHT30;60894;42.544;1.516;2022-11-02T08:01:11;8.09;81.42
72772;SHT30;60894;42.544;1.516;2022-11-02T08:03:38;8.16;81.20
72772;SHT30;60894;42.544;1.516;2022-11-02T08:06:05;8.23;81.45
72772;SHT30;60894;42.544;1.516;2022-11-02T08:08:32;8.30;82.08
72772;SHT30;60894;42.544;1.516;2022-11-02T08:11:04;8.49;81.50
72772;SHT30;60894;42.544;1.516;2022-11-02T08:13:31;8.50;80.55
72772;SHT30;60894;42.544;1.516;2022-11-02T08:16:00;8.47;79.91
72772;SHT30;60894;42.544;1.516;2022-11-02T08:18:27;8.61;80.79
72772;SHT30;60894;42.544;1.516;2022-11-02T08:20:55;8.68;79.94
72772;SHT30;60894;42.544;1.516;2022-11-02T08:23:23;8.72;78.90
72772;SHT30;60894;42.544;1.516;2022-11-02T08:25:51;8.80;79.03
72772;SHT30;60894;42.544;1.516;2022-11-02T08:28:20;8.78;78.87
72772;SHT30;60894;42.544;1.516;2022-11-02T08:30:48;8.85;79.44
72772;SHT30;60894;42.544;1.516;2022-11-02T08:33:17;8.89;79.11
72772;SHT30;60894;42.544;1.516;2022-11-02T08:35:45;8.95;78.89
72772;SHT30;60894;42.544;1.516;2022-11-02T08:38:12;9.05;78.69
72772;SHT30;60894;42.544;1.516;2022-11-02T08:40:40;9.11;79.48
72772;SHT30;60894;42.544;1.516;2022-11-02T08:43:08;9.15;77.43
72772;SHT30;60894;42.544;1.516;2022-11-02T08:45:37;9.22;76.98
72772;SHT30;60894;42.544;1.516;2022-11-02T08:48:05;9.33;76.62
72772;SHT30;60894;42.544;1.516;2022-11-02T08:50:34;9.28;75.83
72772;SHT30;60894;42.544;1.516;2022-11-02T08:53:01;9.32;76.55
72772;SHT30;60894;42.544;1.516;2022-11-02T08:55:29;9.40;76.98
72772;SHT30;60894;42.544;1.516;2022-11-02T08:57:57;9.56;77.20
72772;SHT30;60894;42.544;1.516;2022-11-02T09:00:26;9.79;75.49
72772;SHT30;60894;42.544;1.516;2022-11-02T09:03:00;9.80;75.47
72772;SHT30;60894;42.544;1.516;2022-11-02T09:05:29;9.84;74.23
72772;SHT30;60894;42.544;1.516;2022-11-02T09:07:59;9.98;75.47
72772;SHT30;60894;42.544;1.516;2022-11-02T09:10:28;10.04;73.64
72772;SHT30;60894;42.544;1.516;2022-11-02T09:12:55;10.13;73.44
72772;SHT30;60894;42.544;1.516;2022-11-02T09:15:24;10.21;73.58
72772;SHT30;60894;42.544;1.516;2022-11-02T09:17:51;10.41;74.53
72772;SHT30;60894;42.544;1.516;2022-11-02T09:20:19;10.58;72.76
72772;SHT30;60894;42.544;1.516;2022-11-02T09:22:46;10.92;72.39
72772;SHT30;60894;42.544;1.516;2022-11-02T09:25:15;10.92;70.06
72772;SHT30;60894;42.544;1.516;2022-11-02T09:27:42;11.06;69.28
72772;SHT30;60894;42.544;1.516;2022-11-02T09:30:11;11.27;67.59
72772;SHT30;60894;42.544;1.516;2022-11-02T09:32:38;11.26;68.19
72772;SHT30;60894;42.544;1.516;2022-11-02T09:35:07;11.33;68.72
72772;SHT30;60894;42.544;1.516;2022-11-02T09:37:34;11.51;68.70
72772;SHT30;60894;42.544;1.516;2022-11-02T09:40:02;11.77;68.85
72772;SHT30;60894;42.544;1.516;2022-11-02T09:42:36;11.88;66.37
72772;SHT30;60894;42.544;1.516;2022-11-02T09:45:05;12.05;66.19
72772;SHT30;60894;42.544;1.516;2022-11-02T09:47:41;12.25;65.67
72772;SHT30;60894;42.544;1.516;2022-11-02T09:50:16;12.18;63.89
72772;SHT30;60894;42.544;1.516;2022-11-02T09:52:46;12.01;64.66
72772;SHT30;60894;42.544;1.516;2022-11-02T09:55:19;11.84;64.23
72772;SHT30;60894;42.544;1.516;2022-11-02T09:57:54;11.75;65.03
72772;SHT30;60894;42.544;1.516;2022-11-02T10:00:23;11.68;65.50
72772;SHT30;60894;42.544;1.516;2022-11-02T10:02:57;11.74;65.60
72772;SHT30;60894;42.544;1.516;2022-11-02T10:05:34;12.02;65.65
72772;SHT30;60894;42.544;1.516;2022-11-02T10:08:22;12.67;65.67
72772;SHT30;60894;42.544;1.516;2022-11-02T10:10:59;13.34;62.66
72772;SHT30;60894;42.544;1.516;2022-11-02T10:13:37;13.95;61.19
72772;SHT30;60894;42.544;1.516;2022-11-02T10:16:09;14.38;58.96
72772;SHT30;60894;42.544;1.516;2022-11-02T10:18:39;14.72;57.26
72772;SHT30;60894;42.544;1.516;2022-11-02T10:21:11;15.06;56.78
72772;SHT30;60894;42.544;1.516;2022-11-02T10:23:40;15.05;55.40
72772;SHT30;60894;42.544;1.516;2022-11-02T10:26:13;15.12;55.74
72772;SHT30;60894;42.544;1.516;2022-11-02T10:28:47;14.91;54.80
72772;SHT30;60894;42.544;1.516;2022-11-02T10:31:22;14.82;55.57
72772;SHT30;60894;42.544;1.516;2022-11-02T10:33:49;14.86;55.41
72772;SHT30;60894;42.544;1.516;2022-11-02T10:36:24;14.58;55.70
72772;SHT30;60894;42.544;1.516;2022-11-02T10:39:05;14.48;56.42
72772;SHT30;60894;42.544;1.516;2022-11-02T10:41:47;14.42;56.14
72772;SHT30;60894;42.544;1.516;2022-11-02T10:44:29;14.41;55.97
72772;SHT30;60894;42.544;1.516;2022-11-02T10:47:05;14.34;56.53
72772;SHT30;60894;42.544;1.516;2022-11-02T10:52:35;14.23;57.71
72772;SHT30;60894;42.544;1.516;2022-11-02T10:55:03;14.12;56.33
72772;SHT30;60894;42.544;1.516;2022-11-02T10:57:31;14.02;57.30
72772;SHT30;60894;42.544;1.516;2022-11-02T11:00:23;13.73;57.93
72772;SHT30;60894;42.544;1.516;2022-11-02T11:03:05;13.62;58.28
72772;SHT30;60894;42.544;1.516;2022-11-02T11:05:32;13.51;58.86
72772;SHT30;60894;42.544;1.516;2022-11-02T11:08:00;13.52;58.75
72772;SHT30;60894;42.544;1.516;2022-11-02T11:10:32;13.39;59.06
72772;SHT30;60894;42.544;1.516;2022-11-02T11:13:02;13.35;59.08
72772;SHT30;60894;42.544;1.516;2022-11-02T11:15:31;13.22;59.40
72772;SHT30;60894;42.544;1.516;2022-11-02T11:17:58;13.19;59.60
72772;SHT30;60894;42.544;1.516;2022-11-02T11:20:31;13.21;59.45
72772;SHT30;60894;42.544;1.516;2022-11-02T11:23:15;13.21;59.73
72772;SHT30;60894;42.544;1.516;2022-11-02T11:25:56;13.27;59.86
72772;SHT30;60894;42.544;1.516;2022-11-02T11:28:26;13.31;60.06
72772;SHT30;60894;42.544;1.516;2022-11-02T11:31:15;13.44;59.55
72772;SHT30;60894;42.544;1.516;2022-11-02T11:33:45;13.65;58.24
72772;SHT30;60894;42.544;1.516;2022-11-02T11:36:27;14.05;56.89
72772;SHT30;60894;42.544;1.516;2022-11-02T11:38:56;14.30;55.99
72772;SHT30;60894;42.544;1.516;2022-11-02T11:41:23;14.06;56.89
72772;SHT30;60894;42.544;1.516;2022-11-02T11:43:51;13.82;57.84
72772;SHT30;60894;42.544;1.516;2022-11-02T11:46:20;13.82;58.03
72772;SHT30;60894;42.544;1.516;2022-11-02T11:48:50;13.93;57.89
72772;SHT30;60894;42.544;1.516;2022-11-02T11:51:27;14.34;57.02
72772;SHT30;60894;42.544;1.516;2022-11-02T11:54:08;14.16;57.22
72772;SHT30;60894;42.544;1.516;2022-11-02T11:56:40;14.02;57.86
72772;SHT30;60894;42.544;1.516;2022-11-02T11:59:18;14.05;57.44
72772;SHT30;60894;42.544;1.516;2022-11-02T12:01:47;14.06;57.16
72772;SHT30;60894;42.544;1.516;2022-11-02T12:04:25;14.00;56.44
72772;SHT30;60894;42.544;1.516;2022-11-02T12:07:01;14.06;56.53
72772;SHT30;60894;42.544;1.516;2022-11-02T12:09:34;14.10;56.19
72772;SHT30;60894;42.544;1.516;2022-11-02T12:12:08;14.16;55.84
72772;SHT30;60894;42.544;1.516;2022-11-02T12:14:47;13.95;56.56
72772;SHT30;60894;42.544;1.516;2022-11-02T12:17:28;13.95;57.76
72772;SHT30;60894;42.544;1.516;2022-11-02T12:20:21;14.55;55.45
72772;SHT30;60894;42.544;1.516;2022-11-02T12:22:57;15.09;54.60
72772;SHT30;60894;42.544;1.516;2022-11-02T12:25:36;15.32;53.41
72772;SHT30;60894;42.544;1.516;2022-11-02T12:28:28;15.30;53.37
72772;SHT30;60894;42.544;1.516;2022-11-02T12:31:02;15.88;52.23
72772;SHT30;60894;42.544;1.516;2022-11-02T12:33:44;16.36;51.22
72772;SHT30;60894;42.544;1.516;2022-11-02T12:36:26;16.69;49.01
72772;SHT30;60894;42.544;1.516;2022-11-02T12:38:59;17.28;47.42
72772;SHT30;60894;42.544;1.516;2022-11-02T12:41:40;17.48;45.89
72772;SHT30;60894;42.544;1.516;2022-11-02T12:44:24;18.10;45.99
72772;SHT30;60894;42.544;1.516;2022-11-02T12:46:59;18.33;44.45
72772;SHT30;60894;42.544;1.516;2022-11-02T12:49:42;18.05;44.36
72772;SHT30;60894;42.544;1.516;2022-11-02T12:52:19;18.06;44.41
72772;SHT30;60894;42.544;1.516;2022-11-02T12:54:52;18.17;43.68
72772;SHT30;60894;42.544;1.516;2022-11-02T12:57:23;18.09;43.21
72772;SHT30;60894;42.544;1.516;2022-11-02T12:59:53;18.17;42.81
72772;SHT30;60894;42.544;1.516;2022-11-02T13:02:26;18.16;43.07
72772;SHT30;60894;42.544;1.516;2022-11-02T13:04:59;18.14;43.51
72772;SHT30;60894;42.544;1.516;2022-11-02T13:07:32;18.49;42.61
72772;SHT30;60894;42.544;1.516;2022-11-02T13:10:02;18.28;42.59
72772;SHT30;60894;42.544;1.516;2022-11-02T13:12:32;18.14;42.79
72772;SHT30;60894;42.544;1.516;2022-11-02T13:15:02;17.90;42.99
72772;SHT30;60894;42.544;1.516;2022-11-02T13:17:34;17.61;43.91
72772;SHT30;60894;42.544;1.516;2022-11-02T13:20:13;17.99;44.00
72772;SHT30;60894;42.544;1.516;2022-11-02T13:22:42;18.26;43.80
72772;SHT30;60894;42.544;1.516;2022-11-02T13:25:16;18.46;42.76
72772;SHT30;60894;42.544;1.516;2022-11-02T13:27:47;18.57;42.25
72772;SHT30;60894;42.544;1.516;2022-11-02T13:30:17;18.33;41.77
72772;SHT30;60894;42.544;1.516;2022-11-02T13:32:45;18.12;42.41
72772;SHT30;60894;42.544;1.516;2022-11-02T13:35:19;17.78;42.74
72772;SHT30;60894;42.544;1.516;2022-11-02T13:37:52;18.19;42.69
72772;SHT30;60894;42.544;1.516;2022-11-02T13:40:23;18.17;42.23
72772;SHT30;60894;42.544;1.516;2022-11-02T13:43:18;18.26;42.38
72772;SHT30;60894;42.544;1.516;2022-11-02T13:46:01;18.41;41.74
72772;SHT30;60894;42.544;1.516;2022-11-02T13:48:49;18.22;42.32
72772;SHT30;60894;42.544;1.516;2022-11-02T13:51:26;18.34;42.19
72772;SHT30;60894;42.544;1.516;2022-11-02T13:53:58;18.75;41.56
72772;SHT30;60894;42.544;1.516;2022-11-02T13:56:27;18.98;40.82
72772;SHT30;60894;42.544;1.516;2022-11-02T13:59:00;18.90;41.34
72772;SHT30;60894;42.544;1.516;2022-11-02T14:01:30;18.78;40.52
72772;SHT30;60894;42.544;1.516;2022-11-02T14:04:02;18.41;41.22
72772;SHT30;60894;42.544;1.516;2022-11-02T14:06:33;18.56;41.61
72772;SHT30;60894;42.544;1.516;2022-11-02T14:09:09;18.50;41.72
72772;SHT30;60894;42.544;1.516;2022-11-02T14:11:47;18.37;41.68
72772;SHT30;60894;42.544;1.516;2022-11-02T14:14:22;18.51;41.70
72772;SHT30;60894;42.544;1.516;2022-11-02T14:17:10;18.29;42.20
72772;SHT30;60894;42.544;1.516;2022-11-02T14:19:54;18.20;41.91
72772;SHT30;60894;42.544;1.516;2022-11-02T14:22:30;18.47;41.50
72772;SHT30;60894;42.544;1.516;2022-11-02T14:25:13;18.65;41.48
72772;SHT30;60894;42.544;1.516;2022-11-02T14:27:40;18.44;41.77
72772;SHT30;60894;42.544;1.516;2022-11-02T14:30:38;18.32;41.96
72772;SHT30;60894;42.544;1.516;2022-11-02T14:33:12;18.51;41.31
72772;SHT30;60894;42.544;1.516;2022-11-02T14:35:48;18.78;41.12
72772;SHT30;60894;42.544;1.516;2022-11-02T14:38:30;19.50;39.22
72772;SHT30;60894;42.544;1.516;2022-11-02T14:41:11;19.41;39.12
72772;SHT30;60894;42.544;1.516;2022-11-02T14:46:54;17.42;43.70
72772;SHT30;60894;42.544;1.516;2022-11-02T14:49:25;16.86;45.05
72772;SHT30;60894;42.544;1.516;2022-11-02T14:51:59;16.36;46.51
72772;SHT30;60894;42.544;1.516;2022-11-02T14:54:30;16.30;47.15
72772;SHT30;60894;42.544;1.516;2022-11-02T14:57:01;16.04;47.88
72772;SHT30;60894;42.544;1.516;2022-11-02T14:59:30;15.84;48.20
72772;SHT30;60894;42.544;1.516;2022-11-02T15:01:59;15.86;48.68
72772;SHT30;60894;42.544;1.516;2022-11-02T15:04:29;15.74;49.11
72772;SHT30;60894;42.544;1.516;2022-11-02T15:06:58;15.74;49.63
72772;SHT30;60894;42.544;1.516;2022-11-02T15:09:53;15.46;49.71
72772;SHT30;60894;42.544;1.516;2022-11-02T15:12:45;15.42;48.81
72772;SHT30;60894;42.544;1.516;2022-11-02T15:15:29;15.39;49.02
72772;SHT30;60894;42.544;1.516;2022-11-02T15:18:12;15.36;49.20
72772;SHT30;60894;42.544;1.516;2022-11-02T15:20:41;15.10;49.87
72772;SHT30;60894;42.544;1.516;2022-11-02T15:23:24;15.03;50.16
72772;SHT30;60894;42.544;1.516;2022-11-02T15:25:56;14.91;50.84
72772;SHT30;60894;42.544;1.516;2022-11-02T15:28:27;14.95;50.79
72772;SHT30;60894;42.544;1.516;2022-11-02T15:30:56;14.78;51.33
72772;SHT30;60894;42.544;1.516;2022-11-02T15:33:33;14.71;51.21
72772;SHT30;60894;42.544;1.516;2022-11-02T15:36:01;14.68;51.54
72772;SHT30;60894;42.544;1.516;2022-11-02T15:38:29;14.64;51.74
72772;SHT30;60894;42.544;1.516;2022-11-02T15:41:04;14.60;52.22
72772;SHT30;60894;42.544;1.516;2022-11-02T15:43:59;14.49;52.47
72772;SHT30;60894;42.544;1.516;2022-11-02T15:46:38;14.64;52.54
72772;SHT30;60894;42.544;1.516;2022-11-02T15:49:17;14.55;52.52
72772;SHT30;60894;42.544;1.516;2022-11-02T15:51:53;14.57;52.16
72772;SHT30;60894;42.544;1.516;2022-11-02T15:54:31;14.57;52.38
72772;SHT30;60894;42.544;1.516;2022-11-02T15:57:12;14.52;52.78
72772;SHT30;60894;42.544;1.516;2022-11-02T16:00:07;14.48;52.49
72772;SHT30;60894;42.544;1.516;2022-11-02T16:02:37;14.44;52.57
72772;SHT30;60894;42.544;1.516;2022-11-02T16:05:06;14.33;53.68
72772;SHT30;60894;42.544;1.516;2022-11-02T16:07:41;14.17;55.39
72772;SHT30;60894;42.544;1.516;2022-11-02T16:10:20;14.28;54.11
72772;SHT30;60894;42.544;1.516;2022-11-02T16:12:57;13.95;57.75
72772;SHT30;60894;42.544;1.516;2022-11-02T16:15:25;13.91;57.70
72772;SHT30;60894;42.544;1.516;2022-11-02T16:17:52;13.77;58.19
72772;SHT30;60894;42.544;1.516;2022-11-02T16:20:22;13.66;58.86